Time;durP1;ratioP1;P1;durP2;ratioP2;P2;SDS_P1;SDS_P2;PMS_P1;PMS_P2;Temp;Humidity;BMP_temperature;BMP_pressure;BME280_temperature;BME280_humidity;BME280_pressure;Samples;Min_cycle;Max_cycle;Signal;HPM_P1;HPM_P2
2023/02/04 00:01:21;;;;;;;6.57;4.77;;;7.20;99.90;;;;;;4971210;28;20219;-70
2023/02/04 00:03:47;;;;;;;6.43;5.83;;;7.20;99.90;;;;;;4967167;28;20180;-71
2023/02/04 00:06:12;;;;;;;6.00;5.40;;;7.20;99.90;;;;;;4969509;28;20192;-71
2023/02/04 00:08:38;;;;;;;5.50;4.60;;;7.20;99.90;;;;;;4966754;28;20203;-70
2023/02/04 00:11:04;;;;;;;5.93;5.17;;;7.20;99.90;;;;;;4972076;28;20226;-71
2023/02/04 00:13:29;;;;;;;5.73;5.13;;;7.20;99.90;;;;;;4970775;28;20279;-71
2023/02/04 00:15:55;;;;;;;6.03;5.43;;;7.20;99.90;;;;;;4971041;28;20526;-71
2023/02/04 00:18:20;;;;;;;5.33;4.83;;;7.20;99.90;;;;;;4969568;28;20228;-71
2023/02/04 00:20:46;;;;;;;5.37;4.83;;;7.20;99.90;;;;;;4971391;28;20634;-72
2023/02/04 00:23:11;;;;;;;9.47;5.33;;;7.10;99.90;;;;;;4971461;28;20638;-71
2023/02/04 00:25:37;;;;;;;5.53;5.00;;;7.10;99.90;;;;;;4971598;28;20215;-71
2023/02/04 00:28:03;;;;;;;4.60;3.80;;;7.20;99.90;;;;;;4972319;28;20204;-71
2023/02/04 00:30:28;;;;;;;4.20;3.80;;;7.10;99.90;;;;;;4973048;28;20215;-70
2023/02/04 00:32:55;;;;;;;5.97;4.63;;;7.20;99.90;;;;;;4976042;28;20235;-71
2023/02/04 00:35:22;;;;;;;3.90;3.60;;;7.10;99.90;;;;;;4978200;28;20661;-71
2023/02/04 00:37:47;;;;;;;5.53;3.40;;;7.10;99.90;;;;;;4974061;28;20448;-71
2023/02/04 00:40:13;;;;;;;3.87;3.20;;;7.20;99.90;;;;;;4974449;28;20528;-71
2023/02/04 00:42:38;;;;;;;3.47;3.17;;;7.20;99.90;;;;;;4973702;28;20211;-71
2023/02/04 00:45:04;;;;;;;3.50;3.20;;;7.20;99.90;;;;;;4973853;28;20192;-71
2023/02/04 00:47:29;;;;;;;4.73;4.20;;;7.20;99.90;;;;;;4975829;28;20189;-71
2023/02/04 00:49:55;;;;;;;5.20;3.40;;;7.20;99.90;;;;;;4973275;28;20200;-71
2023/02/04 00:52:20;;;;;;;4.70;4.00;;;7.20;99.90;;;;;;4973811;28;20188;-71
2023/02/04 00:54:46;;;;;;;4.20;3.30;;;7.20;99.90;;;;;;4974098;28;20208;-71
2023/02/04 00:57:11;;;;;;;3.90;3.57;;;7.20;99.90;;;;;;4974843;28;20200;-70
2023/02/04 00:59:37;;;;;;;4.30;4.00;;;7.20;99.90;;;;;;4974716;28;20255;-70
2023/02/04 01:02:03;;;;;;;3.93;3.60;;;7.20;99.90;;;;;;4974929;28;20207;-71
2023/02/04 01:04:28;;;;;;;4.80;4.40;;;7.20;99.90;;;;;;4973902;28;20184;-71
2023/02/04 01:06:54;;;;;;;6.40;4.93;;;7.20;99.90;;;;;;4976703;28;20513;-70
2023/02/04 01:09:19;;;;;;;4.77;4.27;;;7.20;99.90;;;;;;4975513;28;20627;-70
2023/02/04 01:11:45;;;;;;;5.10;4.00;;;7.20;99.90;;;;;;4974004;28;20200;-70
2023/02/04 01:14:11;;;;;;;6.57;5.23;;;7.20;99.90;;;;;;4975711;28;20655;-71
2023/02/04 01:16:37;;;;;;;4.63;4.23;;;7.20;99.90;;;;;;4975065;28;20192;-71
2023/02/04 01:19:02;;;;;;;5.80;4.87;;;7.20;99.90;;;;;;4973889;28;20516;-71
2023/02/04 01:21:28;;;;;;;5.43;4.57;;;7.20;99.90;;;;;;4973661;28;20242;-70
2023/02/04 01:23:54;;;;;;;4.87;3.57;;;7.20;99.90;;;;;;4978935;28;20192;-71
2023/02/04 01:26:20;;;;;;;5.53;3.50;;;7.10;99.90;;;;;;4974385;28;20234;-71
2023/02/04 01:28:46;;;;;;;4.87;4.00;;;7.20;99.90;;;;;;4974260;28;20204;-70
2023/02/04 01:31:12;;;;;;;4.50;4.10;;;7.10;99.90;;;;;;4973362;28;20185;-71
2023/02/04 01:33:37;;;;;;;3.73;3.30;;;7.10;99.90;;;;;;4973228;28;20450;-70
2023/02/04 01:36:03;;;;;;;3.30;2.97;;;7.20;99.90;;;;;;4974227;28;20891;-71
2023/02/04 01:38:28;;;;;;;3.90;2.60;;;7.10;99.90;;;;;;4973318;28;20705;-71
2023/02/04 01:40:55;;;;;;;4.33;2.30;;;7.10;99.90;;;;;;4973860;28;20208;-70
2023/02/04 01:43:22;;;;;;;2.73;2.20;;;7.10;99.90;;;;;;4971999;28;20699;-71
2023/02/04 01:45:48;;;;;;;2.23;2.10;;;7.10;99.90;;;;;;4972749;28;20436;-70
2023/02/04 01:48:19;;;;;;;3.80;2.57;;;7.10;99.90;;;;;;4973891;28;20487;-71
2023/02/04 01:51:03;;;;;;;5.90;2.70;;;7.10;99.90;;;;;;4971247;28;20466;-70
2023/02/04 01:53:29;;;;;;;5.53;2.50;;;7.00;99.90;;;;;;4972669;28;20475;-71
2023/02/04 01:55:54;;;;;;;2.50;1.90;;;7.00;99.90;;;;;;4974506;28;20451;-70
2023/02/04 01:58:20;;;;;;;4.27;1.77;;;7.00;99.90;;;;;;4973689;28;20498;-70
2023/02/04 02:00:45;;;;;;;1.80;1.70;;;6.90;99.90;;;;;;4974500;28;20185;-70
2023/02/04 02:03:11;;;;;;;3.23;1.60;;;6.90;99.90;;;;;;4973075;28;20184;-70
2023/02/04 02:05:47;;;;;;;2.90;1.70;;;6.80;99.90;;;;;;4974323;28;20188;-70
2023/02/04 02:08:14;;;;;;;1.97;1.70;;;6.70;99.90;;;;;;4972627;28;20199;-71
2023/02/04 02:10:43;;;;;;;2.90;1.70;;;6.70;99.90;;;;;;4971530;28;20436;-70
2023/02/04 02:13:11;;;;;;;5.50;1.70;;;6.60;99.90;;;;;;4972232;28;20482;-70
2023/02/04 02:15:37;;;;;;;5.80;1.43;;;6.60;99.90;;;;;;4973440;28;20446;-71
2023/02/04 02:18:02;;;;;;;3.03;2.73;;;6.60;99.90;;;;;;4974214;28;20526;-70
2023/02/04 02:20:28;;;;;;;3.53;1.80;;;6.50;99.90;;;;;;4973177;28;20180;-70
2023/02/04 02:23:23;;;;;;;3.73;1.70;;;6.50;99.90;;;;;;4972394;28;20220;-70
2023/02/04 02:25:50;;;;;;;6.40;1.80;;;6.50;99.90;;;;;;4966030;28;20432;-70
2023/02/04 02:28:21;;;;;;;5.00;2.00;;;6.40;99.90;;;;;;4971850;28;20999;-70
2023/02/04 02:30:48;;;;;;;3.47;2.23;;;6.40;99.90;;;;;;4969202;28;20440;-70
2023/02/04 02:33:16;;;;;;;3.17;1.77;;;6.40;99.90;;;;;;4972356;28;20440;-70
2023/02/04 02:35:42;;;;;;;4.40;1.97;;;6.40;99.90;;;;;;4973287;28;20984;-70
2023/02/04 02:38:11;;;;;;;5.90;2.10;;;6.40;99.90;;;;;;4980295;28;20541;-70
2023/02/04 02:40:37;;;;;;;4.53;1.43;;;6.40;99.90;;;;;;4974183;28;20442;-70
2023/02/04 02:43:04;;;;;;;1.93;0.90;;;6.40;99.90;;;;;;4970679;28;20439;-70
2023/02/04 02:45:31;;;;;;;3.00;1.60;;;6.40;99.90;;;;;;4971076;28;20801;-70
2023/02/04 02:47:59;;;;;;;1.87;1.73;;;6.40;99.90;;;;;;4972792;28;20915;-70
2023/02/04 02:50:28;;;;;;;5.77;2.20;;;6.40;99.90;;;;;;4973141;28;20932;-70
2023/02/04 02:52:54;;;;;;;7.23;1.93;;;6.40;99.90;;;;;;4970359;28;20585;-72
2023/02/04 02:55:25;;;;;;;2.93;2.23;;;6.40;99.90;;;;;;4968844;28;20478;-70
2023/02/04 02:57:52;;;;;;;3.53;2.37;;;6.30;99.90;;;;;;4972043;28;20443;-71
2023/02/04 03:00:25;;;;;;;8.10;3.20;;;6.30;99.90;;;;;;4971758;28;20808;-71
2023/02/04 03:03:07;;;;;;;3.10;2.60;;;6.30;99.90;;;;;;4973312;28;20494;-71
2023/02/04 03:05:37;;;;;;;4.87;2.37;;;6.30;99.90;;;;;;4972926;28;20439;-71
2023/02/04 03:08:04;;;;;;;4.23;1.83;;;6.20;99.90;;;;;;4973090;28;20466;-71
2023/02/04 03:10:29;;;;;;;5.37;2.40;;;6.30;99.90;;;;;;4974704;28;20435;-71
2023/02/04 03:12:55;;;;;;;8.23;3.67;;;6.30;99.90;;;;;;4972728;28;21004;-71
2023/02/04 03:15:21;;;;;;;6.97;2.53;;;6.30;99.90;;;;;;4972793;28;20211;-71
2023/02/04 03:17:46;;;;;;;6.10;2.33;;;6.30;99.90;;;;;;4973159;28;20623;-71
2023/02/04 03:20:14;;;;;;;5.63;3.10;;;6.30;99.90;;;;;;4971488;28;20271;-71
2023/02/04 03:22:40;;;;;;;6.20;3.73;;;6.30;99.90;;;;;;4972393;28;20290;-71
2023/02/04 03:25:06;;;;;;;7.07;3.67;;;6.30;99.90;;;;;;4973003;28;20526;-71
2023/02/04 03:27:31;;;;;;;3.20;1.70;;;6.40;99.90;;;;;;4970132;28;20258;-71
2023/02/04 03:29:58;;;;;;;7.60;2.50;;;6.40;99.90;;;;;;4972828;28;20856;-72
2023/02/04 03:32:23;;;;;;;2.93;2.30;;;6.40;99.90;;;;;;4969891;28;20271;-71
2023/02/04 03:34:49;;;;;;;9.47;2.30;;;6.40;99.90;;;;;;4971502;28;20578;-71
2023/02/04 03:37:15;;;;;;;4.70;2.50;;;6.40;99.90;;;;;;4972856;28;20749;-71
2023/02/04 03:39:40;;;;;;;6.00;2.33;;;6.40;99.90;;;;;;4970301;28;20290;-71
2023/02/04 03:42:06;;;;;;;4.77;2.77;;;6.40;99.90;;;;;;4971958;28;20554;-71
2023/02/04 03:44:31;;;;;;;7.37;2.00;;;6.30;99.90;;;;;;4971573;28;20188;-71
2023/02/04 03:46:58;;;;;;;6.50;2.67;;;6.30;99.90;;;;;;4972583;28;20611;-71
2023/02/04 03:49:24;;;;;;;5.43;2.23;;;6.30;99.90;;;;;;4970078;28;20628;-72
2023/02/04 03:51:50;;;;;;;3.93;3.03;;;6.30;99.90;;;;;;4971140;28;20475;-72
2023/02/04 03:54:15;;;;;;;4.00;2.40;;;6.30;99.90;;;;;;4972662;28;20200;-71
2023/02/04 03:56:41;;;;;;;7.20;2.90;;;6.20;99.90;;;;;;4971474;28;20279;-71
2023/02/04 03:59:06;;;;;;;4.97;2.90;;;6.20;99.90;;;;;;4971900;28;20589;-71
2023/02/04 04:01:32;;;;;;;9.27;3.73;;;6.20;99.90;;;;;;4971429;28;20208;-71
2023/02/04 04:03:57;;;;;;;7.03;3.10;;;6.20;99.90;;;;;;4975194;28;20191;-71
2023/02/04 04:06:23;;;;;;;4.33;3.07;;;6.20;99.90;;;;;;4978128;28;20172;-71
2023/02/04 04:08:49;;;;;;;4.03;2.60;;;6.20;99.90;;;;;;4977395;28;20199;-71
2023/02/04 04:11:14;;;;;;;5.23;2.80;;;6.20;99.90;;;;;;4978898;28;20560;-71
2023/02/04 04:13:40;;;;;;;6.83;2.80;;;6.30;99.90;;;;;;4975083;28;20226;-71
2023/02/04 04:16:06;;;;;;;6.40;3.50;;;6.30;99.90;;;;;;4977104;28;20184;-71
2023/02/04 04:18:32;;;;;;;4.07;2.80;;;6.30;99.90;;;;;;4979842;28;20204;-71
2023/02/04 04:20:58;;;;;;;5.30;2.60;;;6.30;99.90;;;;;;4980089;28;20571;-71
2023/02/04 04:23:23;;;;;;;3.30;2.57;;;6.40;99.90;;;;;;4981054;28;20183;-71
2023/02/04 04:25:49;;;;;;;4.17;2.10;;;6.40;99.90;;;;;;4977949;28;20439;-72
2023/02/04 04:28:15;;;;;;;7.10;3.00;;;6.40;99.90;;;;;;4975374;28;20204;-72
2023/02/04 04:30:41;;;;;;;3.40;2.47;;;6.40;99.90;;;;;;4977785;28;20187;-71
2023/02/04 04:33:06;;;;;;;3.60;2.20;;;6.40;99.90;;;;;;4978215;28;20184;-71
2023/02/04 04:35:33;;;;;;;4.23;2.50;;;6.50;99.90;;;;;;4977858;28;20195;-71
2023/02/04 04:37:59;;;;;;;3.20;1.97;;;6.50;99.90;;;;;;4976109;28;20201;-71
2023/02/04 04:40:25;;;;;;;3.80;3.50;;;6.60;99.90;;;;;;4977068;28;20533;-71
2023/02/04 04:42:50;;;;;;;5.00;2.37;;;6.60;99.90;;;;;;4974677;28;20934;-71
2023/02/04 04:45:16;;;;;;;5.90;2.57;;;6.50;99.90;;;;;;4977979;28;20261;-71
2023/02/04 04:47:41;;;;;;;6.07;2.47;;;6.50;99.90;;;;;;4975693;28;20218;-71
2023/02/04 04:50:07;;;;;;;4.40;2.17;;;6.50;99.90;;;;;;4976051;28;20180;-71
2023/02/04 04:52:33;;;;;;;4.50;2.80;;;6.40;99.90;;;;;;4977640;28;20658;-71
2023/02/04 04:54:58;;;;;;;2.60;2.40;;;6.50;99.90;;;;;;4979212;28;20431;-72
2023/02/04 04:57:24;;;;;;;3.30;2.77;;;6.50;99.90;;;;;;4978311;28;20191;-72
2023/02/04 04:59:49;;;;;;;3.97;2.60;;;6.40;99.90;;;;;;4977520;28;20282;-71
2023/02/04 05:02:15;;;;;;;3.93;2.53;;;6.40;99.90;;;;;;4978208;28;20704;-71
2023/02/04 05:04:40;;;;;;;5.63;2.73;;;6.30;99.90;;;;;;4977480;28;20181;-71
2023/02/04 05:07:06;;;;;;;2.60;2.40;;;6.30;99.90;;;;;;4978425;28;20275;-71
2023/02/04 05:09:31;;;;;;;4.27;2.80;;;6.40;99.90;;;;;;4976005;28;20199;-71
2023/02/04 05:11:57;;;;;;;7.13;3.77;;;6.40;99.90;;;;;;4978592;28;20176;-71
2023/02/04 05:14:22;;;;;;;6.63;3.13;;;6.40;99.90;;;;;;4976018;28;20724;-71
2023/02/04 05:16:48;;;;;;;7.00;3.67;;;6.40;99.90;;;;;;4974906;28;20267;-71
2023/02/04 05:19:13;;;;;;;6.20;3.50;;;6.40;99.90;;;;;;4973755;28;20208;-71
2023/02/04 05:21:39;;;;;;;5.93;3.47;;;6.40;99.90;;;;;;4973245;28;20216;-72
2023/02/04 05:24:05;;;;;;;6.63;4.07;;;6.40;99.90;;;;;;4974465;28;20665;-71
2023/02/04 05:26:31;;;;;;;8.20;4.47;;;6.30;99.90;;;;;;4974816;28;20185;-71
2023/02/04 05:28:59;;;;;;;4.90;3.67;;;6.40;99.90;;;;;;4972280;28;20828;-72
2023/02/04 05:31:25;;;;;;;6.97;3.70;;;6.40;99.90;;;;;;4970746;28;20446;-72
2023/02/04 05:33:50;;;;;;;7.33;4.50;;;6.40;99.90;;;;;;4972341;28;20435;-71
2023/02/04 05:36:16;;;;;;;5.20;3.30;;;6.40;99.90;;;;;;4975106;28;20693;-71
2023/02/04 05:38:42;;;;;;;5.50;3.10;;;6.40;99.90;;;;;;4975966;28;20235;-72
2023/02/04 05:41:07;;;;;;;6.47;2.97;;;6.40;99.90;;;;;;4974961;28;20973;-71
2023/02/04 05:43:34;;;;;;;4.70;3.60;;;6.50;99.90;;;;;;4973538;28;20216;-71
2023/02/04 05:45:59;;;;;;;8.60;4.30;;;6.50;99.90;;;;;;4975426;28;20172;-71
2023/02/04 05:48:25;;;;;;;6.70;4.00;;;6.50;99.90;;;;;;4972381;28;20491;-71
2023/02/04 05:50:50;;;;;;;4.00;3.57;;;6.50;99.90;;;;;;4974352;28;20180;-71
2023/02/04 05:53:16;;;;;;;4.80;4.30;;;6.50;99.90;;;;;;4974022;28;20177;-71
2023/02/04 05:55:41;;;;;;;6.07;3.67;;;6.50;99.90;;;;;;4973868;28;20199;-71
2023/02/04 05:58:07;;;;;;;9.17;3.83;;;6.50;99.90;;;;;;4974554;28;20258;-71
2023/02/04 06:00:32;;;;;;;7.50;4.47;;;6.50;99.90;;;;;;4974001;28;20180;-71
2023/02/04 06:02:58;;;;;;;5.37;3.70;;;6.40;99.90;;;;;;4974986;28;20208;-71
2023/02/04 06:05:23;;;;;;;7.87;4.40;;;6.40;99.90;;;;;;4973468;28;20238;-71
2023/02/04 06:07:49;;;;;;;6.63;4.17;;;6.40;99.90;;;;;;4973407;28;20188;-71
2023/02/04 06:10:15;;;;;;;6.93;4.80;;;6.40;99.90;;;;;;4971903;28;20180;-71
2023/02/04 06:12:40;;;;;;;12.13;5.20;;;6.30;99.90;;;;;;4974100;28;20702;-71
2023/02/04 06:15:06;;;;;;;15.80;5.07;;;6.20;99.90;;;;;;4973002;28;20467;-71
2023/02/04 06:17:32;;;;;;;7.77;4.50;;;6.10;99.90;;;;;;4973619;28;20200;-71
2023/02/04 06:19:57;;;;;;;9.70;5.27;;;6.10;99.90;;;;;;4971773;28;20436;-71
2023/02/04 06:22:24;;;;;;;12.17;5.87;;;6.10;99.90;;;;;;4970804;28;20216;-71
2023/02/04 06:24:50;;;;;;;8.77;6.43;;;6.10;99.90;;;;;;4973578;28;20226;-71
2023/02/04 06:27:22;;;;;;;10.70;5.53;;;6.00;99.90;;;;;;4972966;28;20530;-71
2023/02/04 06:29:49;;;;;;;15.80;6.50;;;6.00;99.90;;;;;;4970692;28;20713;-71
2023/02/04 06:32:15;;;;;;;13.30;6.07;;;6.00;99.90;;;;;;4973087;28;20503;-71
2023/02/04 06:34:41;;;;;;;11.70;5.87;;;6.00;99.90;;;;;;4971098;28;20485;-71
2023/02/04 06:37:06;;;;;;;14.70;6.13;;;6.00;99.90;;;;;;4974425;28;20475;-71
2023/02/04 06:39:32;;;;;;;9.57;6.47;;;5.90;99.90;;;;;;4975399;28;20218;-71
2023/02/04 06:41:57;;;;;;;10.60;5.60;;;6.00;99.90;;;;;;4971698;28;20219;-71
2023/02/04 06:44:23;;;;;;;7.23;6.10;;;5.90;99.90;;;;;;4975189;28;20180;-71
2023/02/04 06:46:48;;;;;;;11.20;7.83;;;5.90;99.90;;;;;;4972669;28;20180;-71
2023/02/04 06:49:14;;;;;;;17.17;8.00;;;5.90;99.90;;;;;;4974807;28;20208;-71
2023/02/04 06:51:39;;;;;;;12.33;7.23;;;5.90;99.90;;;;;;4970045;28;20177;-71
2023/02/04 06:54:05;;;;;;;15.07;6.80;;;6.00;99.90;;;;;;4973569;28;20787;-71
2023/02/04 06:56:30;;;;;;;8.07;5.53;;;6.00;99.90;;;;;;4973060;28;20200;-71
2023/02/04 06:58:56;;;;;;;10.47;6.27;;;6.00;99.90;;;;;;4971517;28;20208;-71
2023/02/04 07:01:21;;;;;;;13.90;8.73;;;6.00;99.90;;;;;;4970115;28;20291;-71
2023/02/04 07:03:47;;;;;;;16.20;7.57;;;6.00;99.90;;;;;;4973454;28;20208;-71
2023/02/04 07:06:12;;;;;;;10.67;6.70;;;6.00;99.90;;;;;;4973389;28;20664;-71
2023/02/04 07:08:38;;;;;;;16.03;7.10;;;6.00;99.90;;;;;;4972280;28;20228;-71
2023/02/04 07:11:03;;;;;;;25.70;12.17;;;6.10;99.90;;;;;;4972174;28;20194;-71
2023/02/04 07:13:29;;;;;;;20.90;13.87;;;6.20;99.90;;;;;;4971777;28;20647;-71
2023/02/04 07:15:54;;;;;;;15.90;7.47;;;6.20;99.90;;;;;;4972493;28;20176;-71
2023/02/04 07:18:20;;;;;;;14.33;7.30;;;6.20;99.90;;;;;;4972555;28;20707;-71
2023/02/04 07:20:46;;;;;;;13.03;7.93;;;6.10;99.90;;;;;;4971540;28;20176;-71
2023/02/04 07:23:11;;;;;;;19.10;7.27;;;6.10;99.90;;;;;;4972394;28;20249;-71
2023/02/04 07:25:37;;;;;;;21.57;7.67;;;6.00;99.90;;;;;;4972745;28;20650;-71
2023/02/04 07:28:04;;;;;;;10.97;7.07;;;6.10;99.90;;;;;;4973532;28;20286;-71
2023/02/04 07:30:31;;;;;;;16.17;7.13;;;6.10;99.90;;;;;;4971164;28;20443;-71
2023/02/04 07:32:56;;;;;;;17.00;6.70;;;6.20;99.90;;;;;;4972528;28;21044;-71
2023/02/04 07:35:23;;;;;;;13.73;7.20;;;6.20;99.90;;;;;;4971294;28;20534;-71
2023/02/04 07:37:48;;;;;;;16.33;7.30;;;6.20;99.90;;;;;;4971807;28;20677;-71
2023/02/04 07:40:14;;;;;;;19.50;8.43;;;6.20;99.90;;;;;;4971475;28;20439;-71
2023/02/04 07:42:40;;;;;;;14.47;7.20;;;6.20;99.90;;;;;;4972352;28;20203;-70
2023/02/04 07:45:06;;;;;;;22.83;7.63;;;6.20;99.90;;;;;;4970662;28;20188;-71
2023/02/04 07:47:34;;;;;;;10.13;6.27;;;6.20;99.90;;;;;;4972392;28;20184;-70
2023/02/04 07:50:00;;;;;;;10.43;7.30;;;6.20;99.90;;;;;;4971013;28;20474;-70
2023/02/04 07:52:25;;;;;;;17.87;7.40;;;6.20;99.90;;;;;;4972216;28;20447;-77
2023/02/04 07:54:51;;;;;;;13.20;7.00;;;6.20;99.90;;;;;;4970413;28;20195;-71
2023/02/04 07:57:19;;;;;;;16.50;8.10;;;6.20;99.90;;;;;;4970787;28;20193;-71
2023/02/04 07:59:45;;;;;;;19.27;9.20;;;6.20;99.90;;;;;;4971712;28;20309;-71
2023/02/04 08:02:10;;;;;;;15.97;8.07;;;6.20;99.90;;;;;;4972441;28;20973;-71
2023/02/04 08:04:39;;;;;;;16.63;6.60;;;6.20;99.90;;;;;;4970420;28;20188;-71
2023/02/04 08:07:04;;;;;;;14.87;8.33;;;6.30;99.90;;;;;;4971511;28;20184;-71
2023/02/04 08:09:30;;;;;;;18.37;8.40;;;6.30;99.90;;;;;;4971182;28;20463;-71
2023/02/04 08:11:56;;;;;;;12.20;8.27;;;6.30;99.90;;;;;;4970225;28;20195;-71
2023/02/04 08:14:21;;;;;;;17.17;8.23;;;6.30;99.90;;;;;;4971674;28;20180;-71
2023/02/04 08:16:47;;;;;;;16.80;8.10;;;6.30;99.90;;;;;;4970567;28;21036;-71
2023/02/04 08:19:17;;;;;;;16.40;8.00;;;6.50;99.90;;;;;;4971852;28;20222;-71
2023/02/04 08:21:44;;;;;;;16.70;7.47;;;6.50;99.90;;;;;;4972455;28;20262;-71
2023/02/04 08:24:14;;;;;;;14.93;8.30;;;6.50;99.90;;;;;;4970292;28;20447;-71
2023/02/04 08:26:41;;;;;;;18.27;8.27;;;6.60;99.90;;;;;;4971287;28;20447;-71
2023/02/04 08:29:07;;;;;;;14.20;7.57;;;6.60;99.90;;;;;;4972407;28;20510;-71
2023/02/04 08:31:33;;;;;;;14.97;6.93;;;6.80;99.90;;;;;;4970857;28;20478;-71
2023/02/04 08:33:58;;;;;;;17.43;7.60;;;6.80;99.90;;;;;;4972360;28;20486;-71
2023/02/04 08:36:24;;;;;;;16.97;8.13;;;6.90;99.90;;;;;;4970510;28;20845;-71
2023/02/04 08:38:49;;;;;;;10.27;7.90;;;7.00;99.90;;;;;;4971373;28;20216;-71
2023/02/04 08:41:15;;;;;;;13.03;7.20;;;7.20;99.90;;;;;;4970633;28;20615;-71
2023/02/04 08:43:40;;;;;;;12.20;7.80;;;7.30;99.90;;;;;;4970090;28;20184;-71
2023/02/04 08:46:06;;;;;;;11.03;7.80;;;7.30;99.90;;;;;;4972186;28;20180;-71
2023/02/04 08:48:32;;;;;;;12.27;8.10;;;7.60;99.90;;;;;;4969646;28;20217;-71
2023/02/04 08:50:57;;;;;;;19.40;8.90;;;8.10;99.90;;;;;;4971124;28;20193;-71
2023/02/04 08:53:23;;;;;;;9.03;7.50;;;8.90;99.90;;;;;;4976608;28;20187;-71
2023/02/04 08:55:48;;;;;;;10.37;6.67;;;10.20;99.90;;;;;;4974339;28;20247;-71
2023/02/04 08:58:14;;;;;;;10.30;6.40;;;10.80;99.90;;;;;;4974838;28;20212;-71
2023/02/04 09:00:39;;;;;;;8.03;6.73;;;11.70;99.90;;;;;;4975036;28;20594;-70
2023/02/04 09:03:05;;;;;;;7.23;5.70;;;13.00;99.90;;;;;;4973626;28;20219;-69
2023/02/04 09:05:30;;;;;;;12.00;6.23;;;14.90;99.90;;;;;;4975599;28;20562;-69
2023/02/04 09:07:56;;;;;;;7.00;4.90;;;17.10;99.90;;;;;;4975405;28;20208;-69
2023/02/04 09:10:21;;;;;;;13.70;5.43;;;18.10;99.90;;;;;;4973728;28;20231;-69
2023/02/04 09:12:47;;;;;;;12.57;5.00;;;18.60;99.90;;;;;;4974652;28;20185;-68
2023/02/04 09:15:12;;;;;;;7.10;4.90;;;17.90;99.90;;;;;;4973531;28;20185;-68
2023/02/04 09:17:38;;;;;;;11.63;5.07;;;18.10;99.90;;;;;;4965496;28;20267;-69
2023/02/04 09:20:04;;;;;;;10.10;5.40;;;18.60;99.90;;;;;;4973833;28;20188;-68
2023/02/04 09:22:30;;;;;;;7.67;4.50;;;18.60;99.60;;;;;;4973223;28;20236;-68
2023/02/04 09:24:56;;;;;;;9.60;5.20;;;18.30;99.90;;;;;;4972916;28;20478;-69
2023/02/04 09:27:22;;;;;;;7.70;4.90;;;19.70;97.60;;;;;;4963431;28;20306;-72
2023/02/04 09:29:47;;;;;;;12.20;4.70;;;20.80;94.10;;;;;;4948214;28;20753;-69
2023/02/04 09:32:13;;;;;;;10.90;4.80;;;21.20;85.60;;;;;;4971166;28;20738;-69
2023/02/04 09:34:38;;;;;;;12.07;6.93;;;21.20;87.20;;;;;;4976458;28;20188;-69
2023/02/04 09:37:04;;;;;;;7.63;5.10;;;21.20;88.10;;;;;;4973081;28;20201;-69
2023/02/04 09:39:29;;;;;;;8.07;3.97;;;21.70;84.80;;;;;;4973822;28;20207;-69
2023/02/04 09:41:55;;;;;;;6.80;4.10;;;22.40;76.60;;;;;;4974454;28;20266;-70
2023/02/04 09:44:23;;;;;;;5.30;3.60;;;22.80;72.10;;;;;;4974913;28;20234;-69
2023/02/04 09:46:52;;;;;;;6.30;4.70;;;23.40;68.20;;;;;;4972971;28;20538;-69
2023/02/04 09:49:18;;;;;;;6.43;3.67;;;24.00;62.60;;;;;;4968917;28;20466;-69
2023/02/04 09:51:45;;;;;;;8.20;4.40;;;22.60;62.70;;;;;;4973292;28;20455;-68
2023/02/04 09:54:13;;;;;;;9.73;4.60;;;20.40;64.60;;;;;;4974117;28;20511;-68
2023/02/04 09:56:39;;;;;;;10.43;4.47;;;18.30;74.50;;;;;;4972272;28;20451;-68
2023/02/04 09:59:17;;;;;;;11.90;4.70;;;16.70;82.70;;;;;;4970301;28;20808;-70
2023/02/04 10:01:43;;;;;;;8.57;4.47;;;15.10;97.30;;;;;;4974276;28;20470;-71
2023/02/04 10:04:13;;;;;;;11.50;4.43;;;14.20;99.90;;;;;;4971731;28;21007;-72
2023/02/04 10:06:40;;;;;;;9.03;4.03;;;13.60;99.90;;;;;;4971321;28;20419;-71
2023/02/04 10:09:10;;;;;;;15.57;4.90;;;12.80;99.90;;;;;;4971768;28;20459;-71
2023/02/04 10:11:38;;;;;;;12.33;4.80;;;12.30;99.90;;;;;;4975281;28;20489;-71
2023/02/04 10:14:05;;;;;;;8.07;3.97;;;12.20;99.90;;;;;;4971420;28;20454;-71
2023/02/04 10:16:33;;;;;;;9.10;3.17;;;11.90;99.90;;;;;;4971999;28;20893;-71
2023/02/04 10:19:05;;;;;;;13.90;4.07;;;11.60;99.90;;;;;;4971778;28;20462;-71
2023/02/04 10:21:35;;;;;;;15.73;4.47;;;11.30;99.90;;;;;;4973844;28;20463;-70
2023/02/04 10:24:04;;;;;;;8.43;4.20;;;11.10;99.90;;;;;;4973398;28;20855;-70
2023/02/04 10:26:31;;;;;;;10.53;3.60;;;11.10;99.90;;;;;;4972379;28;20532;-68
2023/02/04 10:29:05;;;;;;;7.73;3.77;;;11.10;99.90;;;;;;4971483;28;20517;-69
2023/02/04 10:31:42;;;;;;;9.43;4.23;;;11.30;99.90;;;;;;4972299;28;20896;-70
2023/02/04 10:34:19;;;;;;;14.77;5.20;;;11.50;99.90;;;;;;4973533;28;20518;-69
2023/02/04 10:36:47;;;;;;;6.83;3.13;;;11.60;99.90;;;;;;4972238;28;20443;-68
2023/02/04 10:39:21;;;;;;;8.77;3.27;;;11.30;99.90;;;;;;4971629;28;20463;-69
2023/02/04 10:41:50;;;;;;;8.00;3.33;;;11.00;99.90;;;;;;4973488;28;20459;-68
2023/02/04 10:44:19;;;;;;;7.40;3.00;;;10.60;99.90;;;;;;4973827;28;20442;-68
2023/02/04 10:46:45;;;;;;;11.87;4.20;;;10.30;99.90;;;;;;4971653;28;20565;-67
2023/02/04 10:49:22;;;;;;;17.00;3.27;;;10.20;99.90;;;;;;4971113;28;20500;-68
2023/02/04 10:51:49;;;;;;;9.57;3.47;;;10.10;99.90;;;;;;4973033;28;20183;-68
2023/02/04 10:54:31;;;;;;;11.73;3.73;;;10.10;99.90;;;;;;4971194;28;20440;-68
2023/02/04 10:57:16;;;;;;;9.73;3.93;;;10.00;99.90;;;;;;4964431;28;21026;-69
2023/02/04 10:59:43;;;;;;;8.90;3.20;;;10.00;99.90;;;;;;4970564;28;20829;-68
2023/02/04 11:02:48;;;;;;;11.07;3.43;;;10.10;99.90;;;;;;4972561;28;20459;-68
2023/02/04 11:05:19;;;;;;;10.37;2.90;;;10.10;99.90;;;;;;4968313;28;20439;-69
2023/02/04 11:07:46;;;;;;;10.83;3.57;;;10.40;99.90;;;;;;4973506;28;20467;-68
2023/02/04 11:10:13;;;;;;;10.37;4.20;;;11.00;99.90;;;;;;4971700;28;20446;-70
2023/02/04 11:12:44;;;;;;;7.90;4.70;;;14.00;99.90;;;;;;4969978;28;20440;-68
2023/02/04 11:15:36;;;;;;;9.90;3.73;;;16.20;99.90;;;;;;4973841;28;20447;-70
2023/02/04 11:18:04;;;;;;;6.10;3.50;;;17.00;98.50;;;;;;4971477;28;20472;-68
2023/02/04 11:20:32;;;;;;;7.90;3.30;;;16.60;99.90;;;;;;4972487;28;20436;-69
2023/02/04 11:23:31;;;;;;;9.23;3.37;;;16.60;98.40;;;;;;4970797;28;20465;-68
2023/02/04 11:26:31;;;;;;;9.43;3.20;;;16.50;96.50;;;;;;4971845;28;20444;-70
2023/02/04 11:29:00;;;;;;;8.13;3.80;;;15.60;97.30;;;;;;4963242;28;20472;-69
2023/02/04 11:31:29;;;;;;;7.50;3.17;;;14.20;99.70;;;;;;4970621;28;20988;-69
2023/02/04 11:34:20;;;;;;;9.03;3.53;;;13.10;99.90;;;;;;4969697;28;21026;-68
2023/02/04 11:37:01;;;;;;;7.57;3.53;;;12.40;99.90;;;;;;4970629;28;20479;-67
2023/02/04 11:39:43;;;;;;;7.17;3.30;;;11.70;99.90;;;;;;4976462;28;20455;-70
2023/02/04 11:42:17;;;;;;;6.47;4.03;;;11.20;99.90;;;;;;4967796;28;20489;-69
2023/02/04 11:45:18;;;;;;;12.83;4.20;;;10.90;99.90;;;;;;4971540;28;20458;-68
2023/02/04 11:47:45;;;;;;;7.10;4.10;;;10.60;99.90;;;;;;4965655;28;20435;-70
2023/02/04 11:50:24;;;;;;;15.53;4.60;;;10.20;99.90;;;;;;4966690;28;20497;-72
2023/02/04 11:52:52;;;;;;;17.63;4.13;;;9.90;99.90;;;;;;4971767;28;20439;-70
2023/02/04 11:55:18;;;;;;;12.83;4.03;;;9.70;99.90;;;;;;4969205;28;20598;-69
2023/02/04 11:57:44;;;;;;;8.97;3.50;;;9.60;99.90;;;;;;4974275;28;20517;-70
2023/02/04 12:00:15;;;;;;;10.73;4.47;;;9.40;99.90;;;;;;4970713;28;20188;-70
2023/02/04 12:02:46;;;;;;;11.10;4.03;;;9.40;99.90;;;;;;4968954;28;20510;-70
2023/02/04 12:05:15;;;;;;;16.80;7.60;;;9.50;99.90;;;;;;4968725;28;20448;-71
2023/02/04 12:07:41;;;;;;;14.23;4.27;;;9.50;99.90;;;;;;4974441;28;20434;-70
2023/02/04 12:10:15;;;;;;;10.77;3.70;;;9.40;99.90;;;;;;4970955;28;20444;-70
2023/02/04 12:12:47;;;;;;;8.53;3.63;;;9.60;99.90;;;;;;4970903;28;20434;-69
2023/02/04 12:15:22;;;;;;;11.90;3.60;;;9.80;99.90;;;;;;4970411;28;20485;-67
2023/02/04 12:18:06;;;;;;;8.87;3.93;;;9.90;99.90;;;;;;4970831;28;20450;-67
2023/02/04 12:20:33;;;;;;;10.40;3.20;;;10.00;99.90;;;;;;4970429;28;20444;-69
2023/02/04 12:22:59;;;;;;;6.40;3.03;;;10.30;99.90;;;;;;4972182;28;20526;-66
2023/02/04 12:25:25;;;;;;;10.63;4.10;;;10.50;99.90;;;;;;4976599;28;20439;-68
2023/02/04 12:27:53;;;;;;;10.20;4.93;;;10.70;99.90;;;;;;4975674;28;20183;-67
2023/02/04 12:30:19;;;;;;;11.67;3.53;;;11.80;99.90;;;;;;4974130;28;20981;-67
2023/02/04 12:32:45;;;;;;;16.17;3.97;;;13.50;99.90;;;;;;4974923;28;20467;-72
2023/02/04 12:35:10;;;;;;;11.40;4.00;;;14.00;99.90;;;;;;4975749;28;20529;-74
2023/02/04 12:37:36;;;;;;;9.90;3.47;;;14.10;99.90;;;;;;4971815;28;20188;-72
2023/02/04 12:40:01;;;;;;;5.20;3.40;;;14.00;99.90;;;;;;4974281;28;20635;-72
2023/02/04 12:42:27;;;;;;;10.10;3.50;;;14.10;99.90;;;;;;4974852;28;20211;-74
2023/02/04 12:44:52;;;;;;;6.97;2.63;;;14.70;99.90;;;;;;4975160;28;20176;-74
2023/02/04 12:47:18;;;;;;;10.93;3.40;;;14.00;99.90;;;;;;4975199;28;20646;-72
2023/02/04 12:49:43;;;;;;;11.23;3.30;;;13.60;99.90;;;;;;4976677;28;20222;-69
2023/02/04 12:52:09;;;;;;;8.90;3.40;;;13.20;99.90;;;;;;4975320;28;20188;-72